Main page
METAR-TAF:

METAR-TAF

Airports :

Militärflugplatz Emmen

Emmen, Switzerland

latitude: 47-05-32N, longitude: 8-18-16E, elevation: 426 m

Current weather observation

The report was made 25 minutes ago, at 09:20 UTC
Wind 1 kt from variable directions
Temperature 14°C
Humidity 77%
Pressure 1005 hPa
Visibility 10 km or more
Scattered clouds at a height of 3800 ft
Broken clouds at a height of 4600 ft
Overcast at a height of 6600 ft

METAR: LSME 190920Z AUTO VRB01KT 9999NDV SCT038 BKN046 OVC066 14/10 Q1005 RMK

Time: 11:45 (09:45 UTC)


TAF: missing

Weather observations and forecasts of more than 4000 airports (METAR and TAF reports).

The available stations are represented by yellow and red dots on the map.

Hover mouse over dot to see the name of the station.

Then click to see weather observations and forecasts.

To change the map : click on the green buttons with a black cross to zoom in, on the green button with a dash to zoom out, or on the green arrows for adjacent maps.


METAR-TAF: